Terminal Aerodrome Forecast
Issued by NWS Wilmington, NC

Current Version | Previous Version | Graphics & Text | Print | Product List | Glossary Off
Versions: 1 2 3 4 5 6 7 8 9 10 11 12 13 14 15 16 17 18 19 20

562
FTUS42 KILM 301730
TAFMYR
TAF
KMYR 301730Z 3018/0118 12014G19KT P6SM SCT015 BKN030
      TEMPO 3018/3022 BKN015
     FM302200 12009KT P6SM SCT010 OVC020
     FM010300 14008KT P6SM BKN005 OVC015
     FM010800 17009KT P6SM VCSH BKN005 OVC010
     FM011300 18013KT P6SM VCSH BKN015 OVC025=

USA.gov is the U.S. government's official web portal to all federal, state and local government web resources and services.